Time;durP1;ratioP1;P1;durP2;ratioP2;P2;SDS_P1;SDS_P2;PMS_P1;PMS_P2;Temp;Humidity;BMP_temperature;BMP_pressure;BME280_temperature;BME280_humidity;BME280_pressure;Samples;Min_cycle;Max_cycle;Signal;HPM_P1;HPM_P2
2022/11/30 00:00:54;;;;;;;16.07;14.90;;;20.80;61.40;;;;;;5051558;28;20444;-50
2022/11/30 00:03:21;;;;;;;15.43;14.30;;;20.80;61.60;;;;;;5051259;28;20447;-51
2022/11/30 00:05:49;;;;;;;14.43;13.40;;;20.80;61.60;;;;;;5050979;28;20978;-51
2022/11/30 00:08:17;;;;;;;14.23;13.23;;;20.80;61.80;;;;;;5051441;28;20527;-49
2022/11/30 00:10:44;;;;;;;13.17;12.37;;;20.80;61.90;;;;;;5050925;28;20535;-59
2022/11/30 00:13:11;;;;;;;15.90;14.50;;;20.70;61.80;;;;;;5051207;28;20444;-59
2022/11/30 00:15:38;;;;;;;14.97;13.90;;;20.70;62.70;;;;;;5050936;28;20450;-58
2022/11/30 00:18:05;;;;;;;15.67;14.50;;;20.70;62.00;;;;;;5051427;28;20443;-59
2022/11/30 00:20:32;;;;;;;14.80;13.80;;;20.70;62.10;;;;;;5050817;28;20440;-60
2022/11/30 00:23:00;;;;;;;15.37;14.20;;;20.70;62.20;;;;;;5051183;28;20883;-58
2022/11/30 00:25:28;;;;;;;14.87;13.93;;;20.70;62.20;;;;;;5050873;28;20443;-59
2022/11/30 00:27:55;;;;;;;15.47;14.07;;;20.60;62.20;;;;;;5051008;28;20472;-59
2022/11/30 00:30:22;;;;;;;14.90;13.70;;;20.60;62.30;;;;;;5051111;28;20893;-55
2022/11/30 00:32:48;;;;;;;14.67;13.40;;;20.60;62.40;;;;;;5050907;28;20492;-57
2022/11/30 00:35:16;;;;;;;14.87;13.57;;;20.60;62.50;;;;;;5050939;28;20440;-58
2022/11/30 00:37:43;;;;;;;15.50;14.30;;;20.60;62.60;;;;;;5051212;28;20474;-59
2022/11/30 00:40:13;;;;;;;14.53;13.20;;;20.60;62.50;;;;;;5050627;28;20459;-60
2022/11/30 00:42:40;;;;;;;14.50;13.23;;;20.60;62.60;;;;;;5050661;28;20807;-59
2022/11/30 00:45:07;;;;;;;14.97;13.80;;;20.50;62.60;;;;;;5051069;28;21002;-58
2022/11/30 00:47:34;;;;;;;14.87;13.60;;;20.50;62.60;;;;;;5054463;28;20488;-56
2022/11/30 00:50:01;;;;;;;14.90;13.57;;;20.50;62.60;;;;;;5054317;28;20455;-55
2022/11/30 00:52:29;;;;;;;13.90;12.93;;;20.50;62.60;;;;;;5054351;28;20899;-58
2022/11/30 00:54:56;;;;;;;14.80;13.70;;;20.50;62.60;;;;;;5054381;28;20482;-58
2022/11/30 00:57:24;;;;;;;15.97;14.83;;;20.50;62.70;;;;;;5054464;28;20471;-55
2022/11/30 00:59:51;;;;;;;15.60;14.50;;;20.50;62.70;;;;;;5054117;28;20815;-55
2022/11/30 01:02:18;;;;;;;13.87;12.97;;;20.50;62.60;;;;;;5053910;28;20498;-55
2022/11/30 01:04:44;;;;;;;15.43;13.93;;;20.50;62.60;;;;;;5054042;28;20535;-56
2022/11/30 01:07:11;;;;;;;17.30;16.00;;;20.50;62.70;;;;;;5053986;28;21008;-57
2022/11/30 01:09:38;;;;;;;14.90;13.70;;;20.50;62.60;;;;;;5054106;28;20459;-59
2022/11/30 01:12:05;;;;;;;14.67;13.67;;;20.50;62.60;;;;;;5054556;28;20526;-54
2022/11/30 01:14:34;;;;;;;15.23;13.97;;;20.50;62.70;;;;;;5053910;28;20523;-57
2022/11/30 01:17:01;;;;;;;14.03;12.93;;;20.50;62.70;;;;;;5054310;28;20479;-59
2022/11/30 01:19:28;;;;;;;14.40;12.90;;;20.50;62.70;;;;;;5053870;28;21002;-59
2022/11/30 01:21:55;;;;;;;13.07;12.10;;;20.40;62.70;;;;;;5053984;28;20784;-58
2022/11/30 01:24:21;;;;;;;15.70;14.37;;;20.40;62.70;;;;;;5069584;28;20451;-60
2022/11/30 01:26:48;;;;;;;12.60;11.70;;;20.40;62.60;;;;;;5074471;28;20483;-59
2022/11/30 01:29:15;;;;;;;15.80;14.37;;;20.50;62.70;;;;;;5073786;28;20479;-57
2022/11/30 01:31:43;;;;;;;15.00;13.90;;;20.40;63.50;;;;;;5074283;28;20445;-58
2022/11/30 01:34:10;;;;;;;17.00;15.67;;;20.40;62.70;;;;;;5060944;28;20786;-56
2022/11/30 01:36:37;;;;;;;13.80;12.87;;;20.40;62.80;;;;;;5079964;23;20573;-51
2022/11/30 01:39:08;;;;;;;13.27;12.17;;;20.40;62.90;;;;;;5064820;28;20439;-51
2022/11/30 01:41:36;;;;;;;13.87;12.97;;;20.40;62.90;;;;;;5067431;28;20444;-51
2022/11/30 01:44:32;;;;;;;15.43;14.27;;;20.40;62.90;;;;;;5053158;28;20516;-51
2022/11/30 01:47:03;;;;;;;14.10;13.00;;;20.40;62.80;;;;;;5051331;28;20488;-52
2022/11/30 01:49:32;;;;;;;13.53;12.63;;;20.40;62.80;;;;;;5053100;28;20527;-54
2022/11/30 01:52:03;;;;;;;14.73;13.63;;;20.40;62.80;;;;;;5052959;28;20450;-53
2022/11/30 01:54:35;;;;;;;14.63;13.60;;;20.40;62.90;;;;;;5053348;28;20931;-54
2022/11/30 01:57:08;;;;;;;14.97;13.87;;;20.40;62.80;;;;;;5052648;28;20499;-52
2022/11/30 01:59:35;;;;;;;14.57;13.40;;;20.40;62.80;;;;;;5052867;28;20869;-51
2022/11/30 02:02:03;;;;;;;15.03;13.73;;;20.40;62.80;;;;;;5052728;28;20447;-52
2022/11/30 02:04:32;;;;;;;14.27;13.17;;;20.40;62.80;;;;;;5052891;28;20444;-51
2022/11/30 02:07:01;;;;;;;16.10;14.70;;;20.40;62.80;;;;;;5052985;28;20488;-51
2022/11/30 02:09:29;;;;;;;15.97;14.87;;;20.40;62.80;;;;;;5052659;28;20444;-51
2022/11/30 02:11:57;;;;;;;14.60;13.20;;;20.40;62.90;;;;;;5052438;28;20476;-50
2022/11/30 02:14:31;;;;;;;13.87;12.77;;;20.40;62.90;;;;;;5052750;28;20886;-54
2022/11/30 02:17:08;;;;;;;14.37;13.30;;;20.40;62.80;;;;;;5052696;28;20542;-51
2022/11/30 02:20:10;;;;;;;13.80;12.60;;;20.40;62.90;;;;;;5050467;28;20909;-53
2022/11/30 02:22:51;;;;;;;14.90;13.83;;;20.30;62.80;;;;;;5052280;28;20443;-54
2022/11/30 02:25:26;;;;;;;14.97;13.77;;;20.30;62.80;;;;;;5052537;28;20444;-52
2022/11/30 02:28:08;;;;;;;18.63;16.90;;;20.30;62.80;;;;;;5052386;28;20574;-53
2022/11/30 02:30:40;;;;;;;13.83;12.73;;;20.30;62.90;;;;;;5035350;28;20480;-58
2022/11/30 02:33:12;;;;;;;15.20;14.10;;;20.30;62.90;;;;;;5032404;28;20480;-54
2022/11/30 02:35:44;;;;;;;17.07;15.67;;;20.30;62.90;;;;;;5032454;28;20472;-51
2022/11/30 02:38:12;;;;;;;16.60;15.20;;;20.30;62.90;;;;;;5032238;28;21002;-54
2022/11/30 02:40:39;;;;;;;15.50;14.00;;;20.30;63.00;;;;;;5032127;28;20540;-54
2022/11/30 02:43:07;;;;;;;16.43;14.93;;;20.30;63.00;;;;;;5032341;28;20448;-54
2022/11/30 02:45:41;;;;;;;15.63;14.50;;;20.30;62.90;;;;;;5032228;28;20536;-55
2022/11/30 02:48:10;;;;;;;16.17;14.97;;;20.30;63.70;;;;;;5032054;28;20527;-52
2022/11/30 02:50:41;;;;;;;15.73;14.27;;;20.30;62.90;;;;;;5031876;28;20481;-53
2022/11/30 02:53:09;;;;;;;14.27;13.17;;;20.30;62.80;;;;;;5032074;28;20949;-52
2022/11/30 02:55:36;;;;;;;16.30;15.00;;;20.30;62.70;;;;;;5032030;28;20852;-51
2022/11/30 02:58:04;;;;;;;16.37;14.87;;;20.30;62.70;;;;;;5032101;28;20457;-51
2022/11/30 03:00:31;;;;;;;14.93;13.63;;;20.30;62.70;;;;;;5031684;28;20445;-52
2022/11/30 03:02:59;;;;;;;15.87;14.57;;;20.30;62.70;;;;;;5032032;28;20480;-56
2022/11/30 03:05:26;;;;;;;16.63;15.23;;;20.30;62.70;;;;;;5031924;28;20883;-53
2022/11/30 03:07:53;;;;;;;16.37;14.83;;;20.30;62.70;;;;;;5031182;28;20509;-52
2022/11/30 03:10:20;;;;;;;15.07;13.60;;;20.30;62.80;;;;;;5044533;28;20459;-52
2022/11/30 03:12:46;;;;;;;17.43;15.80;;;20.30;62.80;;;;;;5051719;28;20440;-51
2022/11/30 03:15:13;;;;;;;14.20;13.10;;;20.30;62.80;;;;;;5051776;28;20486;-52
2022/11/30 03:17:40;;;;;;;14.20;12.80;;;20.30;62.90;;;;;;5051534;28;21033;-55
2022/11/30 03:20:09;;;;;;;15.87;14.57;;;20.30;62.90;;;;;;5039718;28;20536;-55
2022/11/30 03:22:36;;;;;;;15.97;14.67;;;20.30;63.70;;;;;;5031536;28;20536;-57
2022/11/30 03:25:03;;;;;;;17.73;16.07;;;20.30;62.80;;;;;;5031944;28;20441;-50
2022/11/30 03:27:30;;;;;;;15.70;14.50;;;20.30;62.80;;;;;;5031449;28;21052;-54
2022/11/30 03:29:57;;;;;;;15.67;14.47;;;20.30;62.80;;;;;;5031278;28;20540;-55
2022/11/30 03:32:24;;;;;;;14.80;13.53;;;20.30;62.90;;;;;;5031691;28;20445;-50
2022/11/30 03:34:51;;;;;;;16.00;14.80;;;20.30;62.90;;;;;;5031542;28;20500;-55
2022/11/30 03:37:19;;;;;;;15.20;14.00;;;20.30;62.80;;;;;;5031415;28;20548;-50
2022/11/30 03:39:46;;;;;;;14.90;13.80;;;20.30;62.70;;;;;;5031364;28;20449;-53
2022/11/30 03:42:12;;;;;;;13.67;12.53;;;20.30;62.70;;;;;;5031511;28;20597;-53
2022/11/30 03:44:39;;;;;;;14.60;13.60;;;20.30;62.70;;;;;;5031549;28;20811;-52
2022/11/30 03:47:06;;;;;;;14.97;13.77;;;20.30;62.70;;;;;;5031310;28;20556;-50
2022/11/30 03:49:33;;;;;;;14.53;13.50;;;20.30;62.60;;;;;;5031215;28;20879;-53
2022/11/30 03:52:00;;;;;;;15.47;14.43;;;20.30;62.50;;;;;;5031431;28;20481;-50
2022/11/30 03:54:28;;;;;;;13.73;12.83;;;20.30;62.50;;;;;;5031527;28;20887;-50
2022/11/30 03:56:55;;;;;;;13.80;12.80;;;20.30;62.50;;;;;;5031290;28;20683;-50
2022/11/30 03:59:22;;;;;;;17.53;16.23;;;20.30;62.50;;;;;;5031226;28;20441;-52
2022/11/30 04:01:48;;;;;;;16.47;15.07;;;20.30;62.40;;;;;;5031257;28;20874;-50
2022/11/30 04:04:15;;;;;;;15.50;14.30;;;20.30;62.40;;;;;;5031260;28;20521;-55
2022/11/30 04:06:42;;;;;;;14.73;13.53;;;20.30;62.40;;;;;;5031138;28;20504;-55
2022/11/30 04:09:09;;;;;;;16.87;15.37;;;20.30;62.30;;;;;;5030993;28;20542;-50
2022/11/30 04:11:38;;;;;;;15.67;14.37;;;20.30;62.20;;;;;;5031176;28;20507;-51
2022/11/30 04:14:04;;;;;;;14.30;13.27;;;20.40;62.20;;;;;;5031250;28;20440;-50
2022/11/30 04:16:31;;;;;;;16.27;14.87;;;20.40;62.10;;;;;;5031119;28;20727;-50
2022/11/30 04:18:58;;;;;;;19.40;17.87;;;20.40;62.10;;;;;;5044620;28;20856;-50
2022/11/30 04:21:25;;;;;;;16.53;15.00;;;20.40;62.00;;;;;;5054734;28;20445;-53
2022/11/30 04:23:52;;;;;;;17.33;15.80;;;20.50;62.00;;;;;;5054694;28;20820;-54
2022/11/30 04:26:19;;;;;;;16.13;14.63;;;20.40;61.90;;;;;;5054452;28;20467;-50
2022/11/30 04:28:47;;;;;;;16.40;14.97;;;20.50;62.00;;;;;;5054739;28;20582;-51
2022/11/30 04:31:14;;;;;;;16.00;14.43;;;20.50;62.20;;;;;;5054705;28;20475;-50
2022/11/30 04:33:41;;;;;;;16.73;15.27;;;20.50;61.90;;;;;;5054620;28;20523;-50
2022/11/30 04:36:15;;;;;;;16.70;15.30;;;20.50;61.90;;;;;;5054159;28;20822;-51
2022/11/30 04:38:42;;;;;;;16.37;14.97;;;20.50;61.80;;;;;;5054563;28;20472;-54
2022/11/30 04:41:09;;;;;;;17.37;15.77;;;20.50;61.80;;;;;;5054384;28;20446;-53
2022/11/30 04:43:36;;;;;;;17.50;15.90;;;20.50;61.70;;;;;;5054569;28;20535;-52
2022/11/30 04:46:05;;;;;;;17.90;16.63;;;20.50;61.50;;;;;;5054099;28;20913;-51
2022/11/30 04:48:32;;;;;;;17.30;15.90;;;20.50;61.50;;;;;;5054248;28;20570;-52
2022/11/30 04:51:01;;;;;;;17.43;16.07;;;20.60;61.40;;;;;;5054103;28;20483;-53
2022/11/30 04:53:28;;;;;;;16.60;15.20;;;20.60;61.30;;;;;;5054212;28;20448;-52
2022/11/30 04:55:55;;;;;;;17.33;16.03;;;20.60;61.30;;;;;;5053931;28;20479;-55
2022/11/30 04:58:21;;;;;;;18.70;17.20;;;20.60;61.10;;;;;;5054179;28;20523;-51
2022/11/30 05:00:48;;;;;;;16.50;15.13;;;20.60;61.20;;;;;;5053827;28;20440;-50
2022/11/30 05:03:16;;;;;;;16.77;15.50;;;20.60;61.00;;;;;;5054202;28;20444;-51
2022/11/30 05:05:43;;;;;;;17.90;16.40;;;20.60;61.00;;;;;;5053679;28;20454;-51
2022/11/30 05:08:10;;;;;;;17.67;16.37;;;20.60;61.00;;;;;;5053867;28;21055;-51
2022/11/30 05:10:37;;;;;;;16.07;14.77;;;20.60;60.90;;;;;;5053762;28;20444;-56
2022/11/30 05:13:04;;;;;;;16.23;15.13;;;20.60;61.00;;;;;;5053878;28;20452;-51
2022/11/30 05:15:31;;;;;;;16.10;15.03;;;20.60;60.90;;;;;;5053531;28;20451;-50
2022/11/30 05:17:59;;;;;;;16.53;15.30;;;20.60;60.70;;;;;;5053747;28;20487;-50
2022/11/30 05:20:28;;;;;;;15.77;14.80;;;20.60;60.60;;;;;;5053600;28;20440;-50
2022/11/30 05:22:54;;;;;;;16.13;14.90;;;20.60;61.00;;;;;;5053782;28;20452;-50
2022/11/30 05:25:21;;;;;;;15.50;14.30;;;20.60;60.10;;;;;;5043545;28;20437;-55
2022/11/30 05:27:48;;;;;;;17.10;15.80;;;20.70;60.10;;;;;;5033540;28;20477;-51
2022/11/30 05:30:16;;;;;;;16.13;14.80;;;20.70;59.90;;;;;;5033566;28;20449;-50
2022/11/30 05:32:43;;;;;;;17.03;15.83;;;20.70;59.60;;;;;;5032836;28;20449;-52
2022/11/30 05:35:10;;;;;;;16.23;15.10;;;20.70;59.40;;;;;;5033479;28;20576;-52
2022/11/30 05:37:38;;;;;;;15.27;14.17;;;20.70;59.50;;;;;;5033458;28;20511;-52
2022/11/30 05:40:06;;;;;;;15.70;14.60;;;20.70;59.80;;;;;;5033294;28;20455;-49
2022/11/30 05:42:33;;;;;;;15.03;13.90;;;20.70;60.00;;;;;;5033396;28;20528;-52
2022/11/30 05:45:00;;;;;;;14.10;13.20;;;20.70;60.20;;;;;;5033484;28;20950;-53
2022/11/30 05:47:27;;;;;;;13.90;13.00;;;20.70;60.30;;;;;;5033238;28;20472;-51
2022/11/30 05:49:54;;;;;;;15.10;14.13;;;20.70;60.50;;;;;;5032984;28;20572;-50
2022/11/30 05:52:20;;;;;;;13.40;12.60;;;20.70;60.60;;;;;;5033637;28;20441;-54
2022/11/30 05:54:49;;;;;;;13.50;12.77;;;20.80;60.90;;;;;;5033177;28;20447;-50
2022/11/30 05:57:15;;;;;;;14.27;13.17;;;20.80;61.10;;;;;;5033368;28;20461;-52
2022/11/30 05:59:42;;;;;;;14.37;13.47;;;20.90;61.30;;;;;;5032963;28;21014;-55
2022/11/30 06:02:09;;;;;;;14.17;13.10;;;20.90;61.40;;;;;;5033180;28;20940;-51
2022/11/30 06:04:36;;;;;;;13.90;13.07;;;21.00;61.80;;;;;;5032949;28;20484;-51
2022/11/30 06:07:03;;;;;;;16.60;14.90;;;21.10;62.40;;;;;;5032909;28;20461;-52
2022/11/30 06:09:30;;;;;;;18.50;17.00;;;21.10;63.50;;;;;;5032687;28;20999;-57
2022/11/30 06:11:58;;;;;;;16.97;15.27;;;21.10;67.80;;;;;;5032992;28;20455;-53
2022/11/30 06:14:25;;;;;;;17.40;15.83;;;21.20;68.70;;;;;;5047022;28;20946;-53
2022/11/30 06:16:52;;;;;;;20.17;18.10;;;21.20;69.20;;;;;;5042090;28;20469;-56
2022/11/30 06:19:18;;;;;;;16.43;14.90;;;21.30;80.30;;;;;;5032714;28;20869;-58
2022/11/30 06:21:45;;;;;;;22.93;15.87;;;21.30;79.80;;;;;;5032708;28;20536;-57
2022/11/30 06:24:12;;;;;;;20.43;16.90;;;21.30;79.90;;;;;;5032637;28;20443;-56
2022/11/30 06:26:39;;;;;;;17.30;15.70;;;21.40;79.20;;;;;;5032609;28;20493;-56
2022/11/30 06:29:09;;;;;;;17.70;16.03;;;21.50;78.90;;;;;;5032621;28;20489;-52
2022/11/30 06:31:36;;;;;;;17.03;15.37;;;21.50;81.40;;;;;;5032418;28;20532;-55
2022/11/30 06:34:02;;;;;;;18.50;16.60;;;21.50;80.10;;;;;;5032472;28;20483;-54
2022/11/30 06:36:30;;;;;;;17.27;15.53;;;21.60;79.60;;;;;;5032163;28;20888;-57
2022/11/30 06:38:56;;;;;;;18.80;16.20;;;21.60;79.30;;;;;;5032405;28;20438;-52
2022/11/30 06:41:25;;;;;;;15.53;14.07;;;21.60;78.90;;;;;;5032273;28;20448;-55
2022/11/30 06:43:52;;;;;;;16.23;14.80;;;21.60;78.50;;;;;;5032152;28;20539;-55
2022/11/30 06:46:21;;;;;;;18.33;15.87;;;21.70;77.90;;;;;;5032065;28;20461;-52
2022/11/30 06:48:49;;;;;;;16.17;14.50;;;21.80;77.40;;;;;;5032184;28;20495;-62
2022/11/30 06:51:16;;;;;;;15.13;12.77;;;21.80;77.00;;;;;;5032350;28;20452;-54
2022/11/30 06:53:44;;;;;;;13.38;11.90;;;21.80;75.30;;;;;;5032802;28;20484;-50
2022/11/30 06:56:12;;;;;;;11.43;10.50;;;21.80;74.50;;;;;;5031841;28;20709;-51
2022/11/30 06:58:39;;;;;;;13.13;11.57;;;21.80;73.30;;;;;;5032100;28;20507;-55
2022/11/30 07:01:07;;;;;;;12.87;11.50;;;21.80;73.10;;;;;;5031791;28;20447;-52
2022/11/30 07:03:36;;;;;;;11.37;10.27;;;21.80;71.70;;;;;;5031852;28;20476;-50
2022/11/30 07:06:08;;;;;;;13.90;10.20;;;21.80;71.10;;;;;;5031761;28;20480;-50
2022/11/30 07:08:34;;;;;;;14.40;11.90;;;21.80;70.60;;;;;;5031897;28;20490;-51
2022/11/30 07:11:01;;;;;;;11.00;9.83;;;21.70;70.10;;;;;;5031858;28;20950;-51
2022/11/30 07:13:28;;;;;;;13.10;9.60;;;21.70;69.80;;;;;;5031740;28;20881;-57
2022/11/30 07:15:55;;;;;;;10.37;9.47;;;21.70;69.50;;;;;;5031614;28;20457;-51
2022/11/30 07:18:22;;;;;;;11.57;10.67;;;21.60;69.10;;;;;;5031759;28;20897;-50
2022/11/30 07:20:50;;;;;;;10.30;9.60;;;21.50;68.80;;;;;;5031710;28;20532;-51
2022/11/30 07:26:06;;;;;;;9.83;9.03;;;21.50;68.30;;;;;;5031883;28;20945;-51
2022/11/30 07:28:33;;;;;;;12.53;10.50;;;21.50;68.10;;;;;;5031618;28;20575;-53
2022/11/30 07:31:00;;;;;;;10.60;9.60;;;21.40;67.90;;;;;;5031293;28;20456;-51
2022/11/30 07:33:27;;;;;;;11.20;10.30;;;21.40;67.60;;;;;;5031891;28;20449;-52
2022/11/30 07:35:55;;;;;;;10.10;9.30;;;21.40;67.50;;;;;;5031373;28;20441;-51
2022/11/30 07:38:22;;;;;;;11.03;10.27;;;21.30;67.30;;;;;;5106946;23;20589;-52
2022/11/30 07:40:49;;;;;;;9.83;9.13;;;21.30;67.00;;;;;;5071250;28;20443;-50
2022/11/30 07:43:16;;;;;;;10.30;9.40;;;21.30;66.90;;;;;;5071439;28;20478;-53
2022/11/30 07:45:43;;;;;;;9.20;8.50;;;21.30;66.80;;;;;;5071577;28;20439;-52
2022/11/30 07:48:10;;;;;;;9.83;9.10;;;21.20;66.50;;;;;;5071416;28;20536;-53
2022/11/30 07:50:37;;;;;;;9.97;9.10;;;21.20;66.50;;;;;;5071162;28;20504;-52
2022/11/30 07:53:05;;;;;;;10.30;9.70;;;21.20;66.20;;;;;;5071396;28;20442;-53
2022/11/30 07:55:32;;;;;;;9.53;8.83;;;21.20;66.20;;;;;;5073705;28;20482;-55
2022/11/30 07:57:58;;;;;;;10.23;9.50;;;21.10;66.00;;;;;;5075184;28;20977;-53
2022/11/30 08:00:25;;;;;;;10.20;9.60;;;21.10;65.90;;;;;;5075115;28;20926;-56
2022/11/30 08:02:52;;;;;;;9.47;8.87;;;21.10;65.80;;;;;;5075206;28;20443;-50
2022/11/30 08:05:19;;;;;;;10.60;9.90;;;21.10;65.70;;;;;;5075244;28;20875;-49
2022/11/30 08:07:50;;;;;;;8.73;8.13;;;21.10;65.50;;;;;;5075351;28;20467;-53
2022/11/30 08:10:19;;;;;;;10.20;9.40;;;21.00;65.30;;;;;;5075161;28;20474;-53
2022/11/30 08:12:46;;;;;;;9.43;8.63;;;21.00;65.30;;;;;;5075341;28;20447;-57
2022/11/30 08:15:13;;;;;;;10.53;9.83;;;21.00;65.20;;;;;;5074985;28;20960;-53
2022/11/30 08:17:40;;;;;;;10.00;9.40;;;20.90;65.00;;;;;;5075009;28;20510;-52
2022/11/30 08:20:08;;;;;;;10.20;9.53;;;20.90;65.00;;;;;;5074763;28;20530;-50
2022/11/30 08:22:35;;;;;;;10.00;9.30;;;20.90;65.00;;;;;;5074975;28;20526;-50
2022/11/30 08:25:03;;;;;;;9.43;8.93;;;20.90;65.70;;;;;;5074911;28;20442;-52
2022/11/30 08:27:31;;;;;;;9.87;9.10;;;20.90;64.90;;;;;;5074748;28;20550;-52
2022/11/30 08:29:58;;;;;;;10.10;9.43;;;20.80;64.80;;;;;;5074692;28;20562;-51
2022/11/30 08:32:24;;;;;;;9.20;8.60;;;20.80;64.70;;;;;;5074805;28;20439;-56
2022/11/30 08:34:51;;;;;;;10.77;10.07;;;20.80;65.40;;;;;;5074819;28;20888;-52
2022/11/30 08:37:18;;;;;;;9.40;8.80;;;20.80;64.60;;;;;;5074464;28;20475;-55
2022/11/30 08:39:45;;;;;;;9.20;8.60;;;20.80;64.70;;;;;;5074464;28;20957;-52
2022/11/30 08:42:11;;;;;;;9.40;8.60;;;20.70;64.40;;;;;;5074526;28;20445;-51
2022/11/30 08:44:40;;;;;;;8.50;8.10;;;20.70;64.30;;;;;;5074305;28;20449;-52
2022/11/30 08:47:07;;;;;;;9.67;9.07;;;20.70;64.20;;;;;;5074203;28;20554;-55
2022/11/30 08:49:34;;;;;;;11.67;11.07;;;20.70;64.10;;;;;;5074056;28;20479;-50
2022/11/30 08:52:00;;;;;;;8.80;8.20;;;20.70;64.10;;;;;;5074417;28;20444;-53
2022/11/30 08:54:27;;;;;;;9.43;8.73;;;20.70;64.00;;;;;;5074226;28;20485;-52
2022/11/30 08:56:54;;;;;;;9.20;8.60;;;20.70;64.00;;;;;;5074368;28;20465;-51
2022/11/30 08:59:21;;;;;;;10.70;10.10;;;20.70;63.90;;;;;;5074029;28;20469;-60
2022/11/30 09:01:49;;;;;;;8.83;8.40;;;20.60;63.70;;;;;;5074039;28;20486;-51
2022/11/30 09:04:16;;;;;;;8.43;7.87;;;20.60;63.70;;;;;;5074111;28;20443;-50
2022/11/30 09:06:43;;;;;;;8.60;8.20;;;20.60;63.60;;;;;;5072688;28;20463;-51
2022/11/30 09:09:10;;;;;;;9.13;8.43;;;20.60;63.60;;;;;;5073800;28;20908;-53
2022/11/30 09:11:37;;;;;;;9.90;9.30;;;20.60;63.60;;;;;;5073928;28;20526;-49
2022/11/30 09:14:04;;;;;;;10.10;9.43;;;20.60;63.60;;;;;;5073919;28;20452;-53
2022/11/30 09:16:31;;;;;;;8.80;8.37;;;20.50;63.40;;;;;;5073702;28;20463;-50
2022/11/30 09:18:59;;;;;;;9.93;9.33;;;20.50;63.40;;;;;;5073886;28;20526;-55
2022/11/30 09:21:26;;;;;;;9.30;8.80;;;20.50;63.40;;;;;;5073748;28;20443;-50
2022/11/30 09:23:55;;;;;;;9.60;8.90;;;20.50;63.40;;;;;;5073920;28;20530;-50
2022/11/30 09:26:24;;;;;;;9.00;8.50;;;20.50;63.30;;;;;;5073577;28;20483;-55
2022/11/30 09:28:51;;;;;;;8.77;8.27;;;20.50;63.30;;;;;;5073640;28;20512;-50
2022/11/30 09:31:20;;;;;;;9.10;8.60;;;20.50;63.20;;;;;;5073478;28;20534;-53
2022/11/30 09:33:48;;;;;;;10.13;9.53;;;20.40;63.00;;;;;;5073500;28;20542;-51
2022/11/30 09:36:18;;;;;;;10.37;9.77;;;20.40;63.00;;;;;;5073377;28;20900;-50
2022/11/30 09:38:45;;;;;;;9.73;9.10;;;20.40;63.10;;;;;;5073466;28;20862;-51
2022/11/30 09:41:31;;;;;;;9.70;9.20;;;20.40;63.20;;;;;;5073485;28;20526;-57
2022/11/30 09:44:06;;;;;;;9.93;9.33;;;20.30;63.10;;;;;;5073355;28;20866;-50
2022/11/30 09:46:38;;;;;;;9.80;9.13;;;20.30;63.00;;;;;;5073243;28;20557;-54
2022/11/30 09:49:10;;;;;;;8.70;8.13;;;20.30;63.10;;;;;;5073224;28;20479;-54
2022/11/30 09:51:44;;;;;;;9.80;9.30;;;20.30;63.20;;;;;;5073291;28;20475;-52
2022/11/30 09:54:14;;;;;;;10.27;9.77;;;20.30;63.20;;;;;;5073315;28;20546;-54
2022/11/30 09:56:43;;;;;;;9.63;9.00;;;20.30;63.20;;;;;;5073163;28;20463;-53
2022/11/30 09:59:18;;;;;;;10.63;10.00;;;20.30;63.30;;;;;;5072906;28;20531;-51
2022/11/30 10:01:47;;;;;;;9.53;9.00;;;20.30;63.20;;;;;;5073258;28;20478;-54
2022/11/30 10:04:22;;;;;;;9.23;8.83;;;20.30;63.20;;;;;;5072969;28;20535;-52
2022/11/30 10:07:02;;;;;;;10.77;10.17;;;20.30;63.20;;;;;;5072845;28;20478;-52
2022/11/30 10:09:38;;;;;;;9.50;8.90;;;20.30;63.20;;;;;;5072632;28;20937;-54
2022/11/30 10:12:13;;;;;;;9.67;9.17;;;20.30;63.10;;;;;;5072791;28;20496;-53
2022/11/30 10:15:09;;;;;;;10.10;9.60;;;20.30;63.20;;;;;;5073050;28;20959;-50
2022/11/30 10:17:43;;;;;;;9.93;9.30;;;20.30;63.10;;;;;;5072585;28;20545;-55
2022/11/30 10:20:41;;;;;;;11.80;11.10;;;20.30;63.10;;;;;;5072502;28;20873;-51
2022/11/30 10:23:25;;;;;;;10.57;10.00;;;20.30;63.20;;;;;;5062340;28;20459;-52
2022/11/30 10:25:57;;;;;;;9.77;9.27;;;20.20;63.10;;;;;;5072600;28;20521;-49
2022/11/30 10:28:34;;;;;;;10.33;9.67;;;20.20;63.10;;;;;;5072410;28;20554;-52
2022/11/30 10:31:03;;;;;;;12.00;11.10;;;20.20;63.00;;;;;;5072229;28;20483;-52
2022/11/30 10:33:38;;;;;;;11.30;10.60;;;20.20;63.10;;;;;;5072403;28;20839;-56
2022/11/30 10:36:10;;;;;;;10.90;10.20;;;20.20;63.00;;;;;;5072359;28;20525;-50
2022/11/30 10:38:43;;;;;;;10.93;10.33;;;20.20;63.00;;;;;;5072392;28;20455;-50
2022/11/30 10:41:14;;;;;;;10.27;9.67;;;20.20;63.00;;;;;;5072055;28;20527;-50
2022/11/30 10:43:44;;;;;;;11.53;10.63;;;20.20;63.00;;;;;;5072304;28;20527;-51
2022/11/30 10:46:20;;;;;;;10.63;10.03;;;20.20;63.00;;;;;;5072072;28;20439;-53
2022/11/30 10:48:53;;;;;;;10.20;9.60;;;20.10;62.90;;;;;;5071882;28;21035;-56
2022/11/30 10:51:20;;;;;;;11.27;10.60;;;20.10;62.90;;;;;;5072021;28;20533;-51
2022/11/30 10:53:48;;;;;;;12.37;11.57;;;20.10;62.90;;;;;;5072014;28;20450;-51
2022/11/30 10:56:15;;;;;;;11.50;10.80;;;20.10;62.90;;;;;;5071875;28;20878;-52
2022/11/30 10:58:51;;;;;;;11.60;10.83;;;20.10;62.90;;;;;;5072036;28;20958;-55
2022/11/30 11:01:33;;;;;;;10.20;9.40;;;20.10;62.90;;;;;;5071814;28;20439;-51
2022/11/30 11:04:14;;;;;;;11.13;10.43;;;20.10;62.90;;;;;;5072015;28;20526;-52
2022/11/30 11:06:44;;;;;;;11.40;10.70;;;20.10;62.90;;;;;;5071807;28;20467;-56
2022/11/30 11:09:32;;;;;;;12.60;11.60;;;20.10;62.90;;;;;;5071606;28;20442;-52
2022/11/30 11:12:01;;;;;;;11.33;10.70;;;20.10;63.00;;;;;;5071740;28;20872;-52
2022/11/30 11:14:29;;;;;;;11.43;10.83;;;20.00;62.80;;;;;;5071969;28;20453;-51
2022/11/30 11:16:57;;;;;;;11.77;11.10;;;20.00;62.90;;;;;;5071937;28;20459;-53
2022/11/30 11:19:36;;;;;;;10.80;10.17;;;20.10;62.90;;;;;;5071627;28;20479;-51
2022/11/30 11:22:06;;;;;;;11.03;10.43;;;20.10;62.90;;;;;;5071632;28;20503;-53
2022/11/30 11:24:35;;;;;;;11.53;10.87;;;20.10;62.80;;;;;;5062795;28;20448;-55
2022/11/30 11:27:02;;;;;;;12.37;11.60;;;20.10;64.10;;;;;;5051293;28;20560;-55
2022/11/30 11:29:32;;;;;;;11.23;10.43;;;20.10;65.70;;;;;;5050734;28;20487;-56
2022/11/30 11:32:23;;;;;;;12.37;11.63;;;20.10;67.00;;;;;;5051631;28;20483;-54
2022/11/30 11:34:51;;;;;;;12.00;11.17;;;20.10;67.80;;;;;;5051282;28;20455;-52
2022/11/30 11:37:22;;;;;;;11.97;11.17;;;20.10;68.20;;;;;;5051426;28;20555;-51
2022/11/30 11:40:03;;;;;;;12.57;11.77;;;20.20;68.30;;;;;;5051354;28;20559;-51
2022/11/30 11:42:34;;;;;;;12.03;11.33;;;20.20;68.20;;;;;;5051518;28;20444;-48
2022/11/30 11:45:02;;;;;;;11.80;11.10;;;20.30;68.30;;;;;;5051377;28;20479;-47
2022/11/30 11:47:37;;;;;;;11.70;11.00;;;20.40;68.20;;;;;;5051398;28;20543;-47
2022/11/30 11:50:14;;;;;;;11.73;11.00;;;20.40;68.40;;;;;;5051145;28;20574;-47
2022/11/30 11:52:41;;;;;;;12.40;11.60;;;20.40;68.10;;;;;;5051373;28;20998;-46
2022/11/30 11:55:17;;;;;;;11.63;10.83;;;20.50;68.00;;;;;;5050849;28;20448;-53
2022/11/30 11:57:50;;;;;;;11.90;11.20;;;20.50;67.90;;;;;;5051164;28;20491;-46
2022/11/30 12:00:19;;;;;;;12.17;11.37;;;20.50;67.90;;;;;;5050973;28;20438;-49
2022/11/30 12:02:56;;;;;;;11.70;10.90;;;20.60;67.90;;;;;;5051349;28;20454;-49
2022/11/30 12:05:27;;;;;;;11.87;11.17;;;20.60;67.40;;;;;;5051253;28;20455;-47
2022/11/30 12:08:06;;;;;;;11.33;10.60;;;20.70;67.10;;;;;;5051271;28;20495;-51
2022/11/30 12:10:39;;;;;;;11.93;11.33;;;20.70;66.90;;;;;;5050722;28;20991;-49
2022/11/30 12:13:15;;;;;;;10.97;10.33;;;20.70;66.70;;;;;;5051225;28;20440;-47
2022/11/30 12:15:52;;;;;;;10.77;10.13;;;20.80;66.60;;;;;;5051067;28;20459;-48
2022/11/30 12:18:24;;;;;;;12.07;11.27;;;20.80;66.50;;;;;;5050973;28;20472;-47
2022/11/30 12:20:58;;;;;;;11.40;10.70;;;20.90;66.40;;;;;;5051015;28;20490;-51
2022/11/30 12:23:38;;;;;;;11.97;11.17;;;21.00;66.10;;;;;;5051016;28;20510;-53
2022/11/30 12:26:15;;;;;;;12.10;11.47;;;21.00;66.10;;;;;;5050880;28;20455;-47
2022/11/30 12:28:55;;;;;;;12.30;11.63;;;21.10;65.70;;;;;;5051086;28;20511;-53
2022/11/30 12:31:31;;;;;;;12.37;11.57;;;21.10;65.40;;;;;;5050793;28;20570;-46
2022/11/30 12:34:10;;;;;;;11.27;10.57;;;21.10;64.90;;;;;;5050808;28;20543;-51
2022/11/30 12:36:50;;;;;;;11.80;11.10;;;21.10;64.70;;;;;;5050712;28;20471;-50
2022/11/30 12:39:29;;;;;;;12.67;11.90;;;21.10;64.50;;;;;;5050654;28;21026;-49
2022/11/30 12:42:01;;;;;;;11.90;11.20;;;21.10;65.20;;;;;;5053742;28;20443;-50
2022/11/30 12:44:41;;;;;;;11.83;11.13;;;21.00;64.30;;;;;;5054472;28;20443;-49